Time;durP1;ratioP1;P1;durP2;ratioP2;P2;SDS_P1;SDS_P2;PMS_P1;PMS_P2;Temp;Humidity;BMP_temperature;BMP_pressure;BME280_temperature;BME280_humidity;BME280_pressure;Samples;Min_cycle;Max_cycle;Signal;HPM_P1;HPM_P2
2022/10/01 00:01:15;;;;;;;33.08;24.50;;;;;;;8.45;74.74;101016.70;1682998;83;21056;-83
2022/10/01 00:03:43;;;;;;;32.93;24.90;;;;;;;8.39;74.82;101019.95;1693465;83;21098;-87
2022/10/01 00:06:17;;;;;;;28.85;24.87;;;;;;;8.35;74.96;101016.70;1706479;82;21055;-87
2022/10/01 00:08:47;;;;;;;30.82;23.87;;;;;;;8.32;75.06;101012.25;1722988;82;21618;-87
2022/10/01 00:11:17;;;;;;;31.85;25.65;;;;;;;8.28;75.18;101003.80;1722981;82;21771;-87
2022/10/01 00:13:45;;;;;;;32.63;25.00;;;;;;;8.27;75.39;101010.28;1715532;83;21059;-83
2022/10/01 00:16:15;;;;;;;31.93;24.92;;;;;;;8.25;75.50;101007.59;1695840;82;21103;-82
2022/10/01 00:18:43;;;;;;;28.95;24.65;;;;;;;8.24;75.63;101008.45;1685119;83;21082;-83
2022/10/01 00:21:19;;;;;;;30.25;24.75;;;;;;;8.22;75.77;101002.64;1685049;82;21106;-83
2022/10/01 00:23:46;;;;;;;28.70;24.05;;;;;;;8.21;75.78;101007.00;1695721;83;21717;-83
2022/10/01 00:26:24;;;;;;;32.13;24.80;;;;;;;8.20;75.81;101004.32;1697940;82;21070;-87
2022/10/01 00:29:00;;;;;;;32.67;24.18;;;;;;;8.19;75.93;101004.75;1695369;83;21086;-87
2022/10/01 00:31:26;;;;;;;34.50;25.50;;;;;;;8.17;75.92;101004.68;1696442;82;21138;-83
2022/10/01 00:33:55;;;;;;;30.40;24.32;;;;;;;8.16;75.94;101002.91;1694923;82;21074;-87
2022/10/01 00:36:22;;;;;;;32.67;25.37;;;;;;;8.14;76.03;100995.38;1715471;83;22512;-83
2022/10/01 00:38:48;;;;;;;34.00;25.52;;;;;;;8.13;76.03;101001.90;1709559;82;21106;-83
2022/10/01 00:41:16;;;;;;;29.63;24.45;;;;;;;8.11;76.08;100997.02;1700834;82;21341;-87
2022/10/01 00:43:51;;;;;;;28.83;24.35;;;;;;;8.10;76.11;100992.59;1714089;83;21066;-87
2022/10/01 00:46:40;;;;;;;27.30;24.23;;;;;;;8.08;76.16;100987.70;1683761;83;21113;-83
2022/10/01 00:49:10;;;;;;;31.50;24.72;;;;;;;8.06;76.16;100988.95;1714580;82;21707;-83
2022/10/01 00:51:42;;;;;;;29.95;24.10;;;;;;;8.03;76.23;100987.51;1714500;83;21582;-83
2022/10/01 00:54:20;;;;;;;29.52;24.52;;;;;;;8.01;76.27;100992.23;1702817;83;21087;-82
2022/10/01 00:56:46;;;;;;;30.45;25.20;;;;;;;7.97;76.35;100993.41;1693198;83;21134;-83
2022/10/01 00:59:15;;;;;;;33.63;24.90;;;;;;;7.97;76.49;100993.83;1706900;83;21070;-87
2022/10/01 01:01:41;;;;;;;29.60;23.32;;;;;;;7.94;76.48;100994.62;1715580;82;21797;-83
2022/10/01 01:04:15;;;;;;;35.50;27.50;;;;;;;7.93;76.54;100994.55;1696680;82;22135;-87
2022/10/01 01:06:37;;;;;;;31.48;25.95;;;;;;;7.92;76.57;100992.75;1713913;82;21088;-87
2022/10/01 01:09:04;;;;;;;34.70;24.20;;;;;;;7.92;76.66;100992.75;1715844;83;21070;-87
2022/10/01 01:11:42;;;;;;;27.87;23.22;;;;;;;7.91;76.68;100990.55;1715985;83;21627;-82
2022/10/01 01:14:17;;;;;;;32.40;25.48;;;;;;;7.89;76.72;100985.66;1714677;83;21774;-87
2022/10/01 01:16:51;;;;;;;36.28;25.62;;;;;;;7.89;76.74;100992.22;1715489;82;21086;-81
2022/10/01 01:19:52;;;;;;;31.55;24.25;;;;;;;7.86;76.71;100989.47;1714543;83;21564;-81
2022/10/01 01:22:20;;;;;;;31.07;25.43;;;;;;;7.84;76.74;100995.06;1703207;82;21031;-87
2022/10/01 01:25:15;;;;;;;30.62;25.37;;;;;;;7.81;76.68;100988.80;1681236;82;21126;-89
2022/10/01 01:28:08;;;;;;;29.92;24.67;;;;;;;7.77;76.73;100985.16;1715599;83;21835;-82
2022/10/01 01:30:35;;;;;;;30.70;24.23;;;;;;;7.75;76.71;100986.83;1715263;83;21190;-82
2022/10/01 01:33:06;;;;;;;29.92;24.85;;;;;;;7.68;76.79;100983.52;1715437;83;21101;-87
2022/10/01 01:35:38;;;;;;;28.50;23.65;;;;;;;7.65;76.88;100982.95;1694229;82;22193;-87
2022/10/01 01:38:09;;;;;;;32.95;25.62;;;;;;;7.64;76.93;100978.56;1697468;82;21560;-88
2022/10/01 01:40:37;;;;;;;32.23;24.65;;;;;;;7.61;77.00;100978.43;1713724;83;21783;-82
2022/10/01 01:43:05;;;;;;;32.23;25.08;;;;;;;7.59;77.02;100983.59;1715131;83;21126;-82
2022/10/01 01:45:34;;;;;;;29.30;24.90;;;;;;;7.57;77.02;100980.45;1659570;83;21557;-82
2022/10/01 01:48:01;;;;;;;30.77;24.65;;;;;;;7.57;77.08;100977.83;1715796;83;21114;-82
2022/10/01 01:50:33;;;;;;;33.95;26.33;;;;;;;7.53;77.08;100971.57;1711973;82;21466;-82
2022/10/01 01:53:01;;;;;;;36.03;26.70;;;;;;;7.50;77.17;100970.13;1694906;82;21758;-87
2022/10/01 01:55:28;;;;;;;32.23;25.57;;;;;;;7.47;77.22;100979.19;1715468;83;21067;-82
2022/10/01 01:57:56;;;;;;;30.57;24.60;;;;;;;7.44;77.27;100975.13;1719784;82;21030;-82
2022/10/01 02:00:23;;;;;;;32.15;25.88;;;;;;;7.43;77.38;100977.24;1729834;82;21714;-87
2022/10/01 02:02:51;;;;;;;34.23;26.60;;;;;;;7.43;77.52;100976.36;1715614;83;21717;-86
2022/10/01 02:05:24;;;;;;;33.48;26.20;;;;;;;7.40;77.50;100971.48;1715302;83;21773;-82
2022/10/01 02:08:26;;;;;;;32.50;25.50;;;;;;;7.38;77.56;100970.52;1679476;83;21642;-86
2022/10/01 02:11:25;;;;;;;30.37;25.35;;;;;;;7.39;77.57;100974.03;1697741;83;21135;-83
2022/10/01 02:14:18;;;;;;;33.92;24.70;;;;;;;7.37;77.54;100970.03;1598072;87;21190;-83
2022/10/01 02:17:04;;;;;;;31.73;24.47;;;;;;;7.35;77.57;100969.50;1701407;83;21058;-82
2022/10/01 02:19:40;;;;;;;33.75;26.10;;;;;;;7.32;77.62;100965.43;1685276;83;21829;-87
2022/10/01 02:22:14;;;;;;;32.67;25.43;;;;;;;7.27;77.48;100965.68;1715371;83;21545;-87
2022/10/01 02:24:56;;;;;;;31.00;25.12;;;;;;;7.25;77.56;100971.27;1695325;82;21518;-83
2022/10/01 02:27:43;;;;;;;32.23;26.48;;;;;;;7.20;77.55;100966.71;1698243;83;21055;-87
2022/10/01 02:30:11;;;;;;;32.60;25.88;;;;;;;7.16;77.54;100970.03;1718396;82;21150;-86
2022/10/01 02:32:39;;;;;;;33.38;26.05;;;;;;;7.14;77.64;100965.58;1717348;82;21717;-86
2022/10/01 02:35:07;;;;;;;33.00;25.97;;;;;;;7.12;77.64;100965.50;1711633;83;21056;-87
2022/10/01 02:37:34;;;;;;;34.23;26.42;;;;;;;7.10;77.67;100963.23;1722239;82;21109;-85
2022/10/01 02:40:02;;;;;;;32.67;25.32;;;;;;;7.08;77.74;100962.28;1722603;82;21804;-86
2022/10/01 02:42:28;;;;;;;32.53;26.55;;;;;;;7.06;77.82;100962.64;1723069;83;21070;-87
2022/10/01 02:44:56;;;;;;;35.40;26.77;;;;;;;7.06;77.89;100953.86;1719239;83;21850;-87
2022/10/01 02:47:27;;;;;;;33.38;26.93;;;;;;;7.05;77.84;100955.59;1699803;83;21074;-87
2022/10/01 02:49:54;;;;;;;33.67;25.80;;;;;;;7.03;77.80;100957.26;1695040;83;21141;-87
2022/10/01 02:52:51;;;;;;;30.60;25.27;;;;;;;7.01;77.89;100955.87;1694399;83;21519;-83
2022/10/01 02:55:21;;;;;;;35.75;27.62;;;;;;;7.01;77.99;100954.99;1640262;86;21161;-83
2022/10/01 02:57:48;;;;;;;33.92;26.95;;;;;;;6.99;77.98;100956.23;1678254;83;22783;-83
2022/10/01 03:00:21;;;;;;;33.83;27.15;;;;;;;6.99;78.08;100954.92;1704003;83;21090;-87
2022/10/01 03:02:48;;;;;;;33.75;26.62;;;;;;;6.97;78.06;100949.16;1723654;82;21619;-87
2022/10/01 03:05:16;;;;;;;34.53;26.65;;;;;;;6.96;78.08;100953.89;1696913;83;21042;-87
2022/10/01 03:07:42;;;;;;;34.90;26.93;;;;;;;6.94;78.14;100947.70;1723769;82;21058;-83
2022/10/01 03:10:10;;;;;;;34.25;26.45;;;;;;;6.92;78.17;100945.02;1723899;82;21706;-87
2022/10/01 03:12:39;;;;;;;32.42;26.68;;;;;;;6.92;78.21;100942.83;1676897;84;21084;-87
2022/10/01 03:15:06;;;;;;;33.63;26.57;;;;;;;6.91;78.23;100936.70;1678324;84;21074;-87
2022/10/01 03:17:36;;;;;;;32.98;26.12;;;;;;;6.88;78.21;100936.56;1618838;87;21101;-83
2022/10/01 03:20:04;;;;;;;39.30;28.02;;;;;;;6.86;78.23;100938.64;1651825;86;21480;-82
2022/10/01 03:22:30;;;;;;;34.13;26.20;;;;;;;6.84;78.25;100938.57;1664320;85;22435;-83
2022/10/01 03:24:59;;;;;;;39.75;27.42;;;;;;;6.83;78.31;100933.27;1676230;85;21073;-88
2022/10/01 03:27:26;;;;;;;37.78;27.50;;;;;;;6.82;78.30;100933.69;1662237;85;21151;-82
2022/10/01 03:29:53;;;;;;;35.43;28.10;;;;;;;6.79;78.35;100929.23;1690885;84;21164;-83
2022/10/01 03:32:19;;;;;;;37.78;26.30;;;;;;;6.80;78.48;100928.81;1671203;84;21083;-88
2022/10/01 03:34:47;;;;;;;36.85;28.23;;;;;;;6.78;78.46;100930.47;1670697;84;21884;-83
2022/10/01 03:37:14;;;;;;;33.92;28.00;;;;;;;6.76;78.54;100930.39;1713300;83;21089;-88
2022/10/01 03:39:40;;;;;;;33.53;27.70;;;;;;;6.76;78.67;100929.09;1715730;82;21134;-87
2022/10/01 03:42:08;;;;;;;38.38;29.42;;;;;;;6.74;78.69;100927.25;1695191;83;21288;-83
2022/10/01 03:44:34;;;;;;;35.15;28.65;;;;;;;6.73;78.84;100921.52;1714992;83;21055;-83
2022/10/01 03:47:01;;;;;;;40.00;29.60;;;;;;;6.73;78.90;100921.52;1712958;82;22172;-82
2022/10/01 03:49:28;;;;;;;33.40;28.45;;;;;;;6.72;78.88;100923.25;1694210;84;21071;-86
2022/10/01 03:51:56;;;;;;;35.15;27.98;;;;;;;6.72;79.01;100919.72;1692601;82;21632;-82
2022/10/01 03:54:24;;;;;;;35.52;26.42;;;;;;;6.73;79.03;100917.17;1683532;85;21580;-86
2022/10/01 03:56:51;;;;;;;35.83;27.82;;;;;;;6.74;79.03;100918.09;1697557;82;21551;-86
2022/10/01 03:59:18;;;;;;;34.63;29.05;;;;;;;6.74;79.10;100911.55;1713680;82;21771;-86
2022/10/01 04:01:45;;;;;;;35.78;27.82;;;;;;;6.74;79.10;100913.74;1714689;83;21070;-82
2022/10/01 04:04:12;;;;;;;35.38;28.40;;;;;;;6.74;79.10;100911.55;1715447;83;21110;-82
2022/10/01 04:06:41;;;;;;;35.90;27.90;;;;;;;6.73;79.07;100909.32;1715707;82;21110;-82
2022/10/01 04:09:11;;;;;;;33.92;28.12;;;;;;;6.70;79.04;100910.52;1709933;83;21273;-83
2022/10/01 04:11:38;;;;;;;34.40;28.57;;;;;;;6.68;79.11;100908.25;1714572;82;21867;-83
2022/10/01 04:14:05;;;;;;;34.33;29.00;;;;;;;6.65;79.07;100906.80;1715756;83;21655;-83
2022/10/01 04:16:35;;;;;;;40.80;28.92;;;;;;;6.64;79.13;100902.80;1735158;82;21104;-84
2022/10/01 04:19:02;;;;;;;39.38;29.00;;;;;;;6.54;79.23;100893.25;1710567;82;21694;-84
2022/10/01 04:21:28;;;;;;;44.00;29.37;;;;;;;6.64;79.26;100906.73;1691387;83;21148;-84
2022/10/01 04:23:55;;;;;;;37.58;28.27;;;;;;;6.64;79.28;100907.62;1713832;83;22547;-84
2022/10/01 04:26:22;;;;;;;40.65;29.30;;;;;;;6.63;79.28;100912.38;1713915;83;21089;-85
2022/10/01 04:28:49;;;;;;;36.00;28.02;;;;;;;6.62;79.35;100905.35;1666135;84;21156;-84
2022/10/01 04:31:25;;;;;;;36.33;29.87;;;;;;;6.62;79.33;100901.42;1704985;82;21588;-88
2022/10/01 04:33:54;;;;;;;39.45;29.72;;;;;;;6.59;79.32;100907.43;1686201;83;21169;-82
2022/10/01 04:36:20;;;;;;;39.73;28.67;;;;;;;6.58;79.39;100909.55;1689596;84;21698;-83
2022/10/01 04:38:52;;;;;;;34.38;28.38;;;;;;;6.58;79.39;100913.89;1706697;83;21067;-82
2022/10/01 04:41:19;;;;;;;36.93;28.67;;;;;;;6.57;79.41;100906.89;1705031;83;21062;-84
2022/10/01 04:43:46;;;;;;;37.55;30.55;;;;;;;6.57;79.42;100910.40;1733494;82;21031;-83
2022/10/01 04:46:14;;;;;;;33.73;27.60;;;;;;;6.58;79.44;100906.05;1742248;82;21094;-84
2022/10/01 04:48:41;;;;;;;37.45;28.75;;;;;;;6.58;79.44;100904.74;1734436;82;22548;-83
2022/10/01 04:51:08;;;;;;;39.70;30.32;;;;;;;6.57;79.34;100908.20;1731895;82;21094;-91
2022/10/01 04:53:35;;;;;;;41.23;30.35;;;;;;;6.55;79.34;100909.83;1729642;82;21059;-92
2022/10/01 04:56:01;;;;;;;36.75;28.57;;;;;;;6.53;79.31;100910.17;1702699;82;21090;-84
2022/10/01 04:58:29;;;;;;;41.25;29.42;;;;;;;6.49;79.32;100914.80;1709791;83;21078;-83
2022/10/01 05:00:56;;;;;;;38.60;29.32;;;;;;;6.49;79.38;100914.38;1714518;83;22629;-85
2022/10/01 05:03:22;;;;;;;35.10;28.85;;;;;;;6.52;79.49;100918.87;1687108;84;21079;-84
2022/10/01 05:05:52;;;;;;;42.25;30.90;;;;;;;6.52;79.56;100919.75;1694427;82;21070;-86
2022/10/01 05:08:21;;;;;;;44.40;30.45;;;;;;;6.55;79.62;100915.98;1719878;82;21047;-84
2022/10/01 05:10:48;;;;;;;39.73;29.92;;;;;;;6.61;79.79;100916.66;1714507;83;22131;-87
2022/10/01 05:13:15;;;;;;;42.55;31.37;;;;;;;6.69;79.83;100915.68;1688497;83;21813;-84
2022/10/01 05:15:42;;;;;;;38.80;30.08;;;;;;;6.75;79.87;100910.28;1698235;83;21066;-84
2022/10/01 05:18:08;;;;;;;42.53;31.82;;;;;;;6.84;79.90;100910.21;1728070;82;21046;-84
2022/10/01 05:20:36;;;;;;;40.35;30.65;;;;;;;6.90;79.89;100913.08;1703908;82;21058;-83
2022/10/01 05:23:03;;;;;;;39.60;32.30;;;;;;;6.98;79.93;100910.36;1705226;82;21753;-91
2022/10/01 05:25:30;;;;;;;45.67;32.45;;;;;;;7.05;79.89;100910.22;1712125;82;22492;-86
2022/10/01 05:28:04;;;;;;;39.92;31.73;;;;;;;7.09;79.86;100906.89;1715159;82;21171;-84
2022/10/01 05:30:33;;;;;;;40.40;32.33;;;;;;;7.14;79.83;100899.70;1722342;82;21070;-84
2022/10/01 05:33:03;;;;;;;48.68;35.55;;;;;;;7.20;79.90;100902.56;1713159;82;21066;-84
2022/10/01 05:35:35;;;;;;;41.48;33.25;;;;;;;7.29;79.92;100897.25;1713325;82;21078;-86
2022/10/01 05:38:06;;;;;;;38.75;31.17;;;;;;;7.40;80.04;100900.77;1715092;83;21352;-83
2022/10/01 05:40:32;;;;;;;38.70;31.45;;;;;;;7.53;80.08;100894.72;1706817;83;21302;-87
2022/10/01 05:42:59;;;;;;;41.88;31.45;;;;;;;7.67;80.12;100896.14;1679068;85;21122;-91
2022/10/01 05:45:28;;;;;;;35.35;29.95;;;;;;;7.84;80.18;100893.28;1706387;83;21682;-90
2022/10/01 05:48:03;;;;;;;39.23;30.40;;;;;;;7.97;80.08;100885.93;1660139;84;21113;-89
2022/10/01 05:50:32;;;;;;;37.42;30.25;;;;;;;8.11;80.11;100886.47;1692834;84;21762;-88
2022/10/01 05:53:00;;;;;;;38.42;30.02;;;;;;;8.25;80.06;100889.59;1707633;82;21047;-90
2022/10/01 05:55:30;;;;;;;40.25;30.72;;;;;;;8.37;79.99;100888.73;1744570;82;21533;-87
2022/10/01 05:58:02;;;;;;;39.35;30.97;;;;;;;8.45;79.85;100890.78;1745420;82;21138;-88
2022/10/01 06:00:29;;;;;;;;;;;;;;;8.48;79.59;100889.13;1716677;82;21078;-82
2022/10/01 06:03:04;;;;;;;40.25;31.68;;;;;;;8.49;79.46;100888.73;1711258;83;22436;-91
2022/10/01 06:05:32;;;;;;;42.10;30.25;;;;;;;8.51;79.38;100883.12;1715427;83;21050;-82
2022/10/01 06:07:59;;;;;;;41.45;31.50;;;;;;;8.55;79.41;100890.25;1712742;82;21074;-89
2022/10/01 06:10:29;;;;;;;36.30;29.07;;;;;;;8.58;79.45;100880.27;1673652;84;21051;-91
2022/10/01 06:13:06;;;;;;;39.45;30.20;;;;;;;8.64;79.51;100880.52;1688003;83;21050;-82
2022/10/01 06:15:36;;;;;;;38.40;31.00;;;;;;;8.71;79.51;100880.77;1692037;83;21768;-82
2022/10/01 06:18:12;;;;;;;39.18;30.95;;;;;;;8.77;79.61;100877.90;1706320;84;21385;-91
2022/10/01 06:20:39;;;;;;;39.67;31.15;;;;;;;8.83;79.56;100872.84;1680630;85;21134;-85
2022/10/01 06:23:10;;;;;;;37.45;29.45;;;;;;;8.90;79.61;100870.91;1708169;83;21087;-83
2022/10/01 06:25:37;;;;;;;39.00;29.85;;;;;;;8.97;79.59;100868.05;1685800;83;21058;-86
2022/10/01 06:28:05;;;;;;;36.15;30.90;;;;;;;9.07;79.59;100869.73;1671675;84;22501;-89
2022/10/01 06:30:35;;;;;;;38.85;30.97;;;;;;;9.14;79.54;100864.23;1691015;83;21155;-86
2022/10/01 06:33:13;;;;;;;37.08;30.20;;;;;;;9.20;79.52;100863.14;1700198;82;21063;-83
2022/10/01 06:35:43;;;;;;;39.18;29.95;;;;;;;9.27;79.50;100856.34;1694922;83;21098;-85
2022/10/01 06:38:10;;;;;;;41.73;31.07;;;;;;;9.36;79.40;100855.75;1702528;83;21082;-88
2022/10/01 06:40:37;;;;;;;34.48;29.82;;;;;;;9.42;79.43;100856.84;1708378;83;21644;-83
2022/10/01 06:43:06;;;;;;;38.88;30.90;;;;;;;9.50;79.37;100854.45;1699010;81;21078;-87
2022/10/01 06:45:37;;;;;;;38.30;29.82;;;;;;;9.60;79.44;100854.31;1723376;81;21139;-88
2022/10/01 06:48:06;;;;;;;36.68;29.40;;;;;;;9.71;79.38;100860.35;1730444;81;21133;-90
2022/10/01 06:50:34;;;;;;;36.38;29.75;;;;;;;9.68;79.26;100837.02;1740495;81;21119;-90
2022/10/01 06:53:03;;;;;;;35.30;28.75;;;;;;;9.86;79.27;100853.78;1726957;81;21762;-91
2022/10/01 06:55:33;;;;;;;37.55;29.52;;;;;;;9.95;79.25;100849.19;1721462;83;21043;-92
2022/10/01 06:58:02;;;;;;;36.68;29.15;;;;;;;10.04;79.18;100845.11;1710151;83;21126;-90
2022/10/01 07:00:31;;;;;;;36.40;28.73;;;;;;;10.11;79.02;100844.41;1715832;83;21018;-91
2022/10/01 07:02:59;;;;;;;32.13;27.95;;;;;;;10.20;78.99;100842.48;1703527;83;21650;-91
2022/10/01 07:05:26;;;;;;;35.70;28.52;;;;;;;10.25;78.84;100835.62;1723501;82;21740;-86
2022/10/01 07:07:53;;;;;;;37.70;28.70;;;;;;;10.33;78.78;100839.80;1721843;81;21086;-83
2022/10/01 07:10:20;;;;;;;35.38;28.00;;;;;;;10.42;78.76;100837.42;1708948;81;21070;-83
2022/10/01 07:12:48;;;;;;;38.60;29.92;;;;;;;10.50;78.73;100830.61;1702891;81;21827;-90
2022/10/01 07:15:16;;;;;;;31.93;27.22;;;;;;;10.60;78.69;100823.84;1715589;81;21112;-82
2022/10/01 07:17:48;;;;;;;30.48;26.20;;;;;;;10.69;78.60;100824.08;1709990;83;21750;-82
2022/10/01 07:20:18;;;;;;;31.82;26.65;;;;;;;10.80;78.57;100814.27;1701455;83;21102;-92
2022/10/01 07:22:45;;;;;;;33.60;28.62;;;;;;;10.89;78.37;100817.13;1697494;81;21086;-92
2022/10/01 07:25:13;;;;;;;30.97;26.80;;;;;;;10.97;78.32;100814.68;1731725;81;21082;-91
2022/10/01 07:27:40;;;;;;;34.18;27.00;;;;;;;11.05;78.18;100814.42;1705696;83;21113;-91
2022/10/01 07:30:12;;;;;;;31.75;27.22;;;;;;;11.08;78.15;100808.81;1724579;82;21793;-92
2022/10/01 07:32:44;;;;;;;33.70;28.10;;;;;;;11.15;78.04;100804.99;1733509;81;21054;-93
2022/10/01 07:35:11;;;;;;;32.25;26.52;;;;;;;11.22;77.98;100797.30;1707255;82;21098;-90
2022/10/01 07:37:38;;;;;;;28.00;22.00;;;;;;;11.32;77.90;100793.13;1714936;83;21118;-90
2022/10/01 07:40:06;;;;;;;29.55;25.82;;;;;;;11.41;77.74;100792.41;1720631;83;21074;-83
2022/10/01 07:42:34;;;;;;;31.15;25.55;;;;;;;11.48;77.63;100794.34;1715651;83;21784;-83
2022/10/01 07:45:03;;;;;;;32.50;25.80;;;;;;;11.56;77.54;100790.14;1700532;81;21082;-84
2022/10/01 07:47:29;;;;;;;32.63;26.93;;;;;;;11.65;77.52;100784.16;1718477;81;21090;-90
2022/10/01 07:49:56;;;;;;;31.90;26.57;;;;;;;11.75;77.28;100783.91;1723899;82;21142;-89
2022/10/01 07:52:23;;;;;;;28.92;25.27;;;;;;;11.81;77.16;100780.98;1711160;82;21146;-90
2022/10/01 07:54:50;;;;;;;28.87;23.62;;;;;;;11.87;76.96;100775.83;1682944;84;21740;-89
2022/10/01 07:57:17;;;;;;;29.90;22.77;;;;;;;11.93;76.78;100769.81;1682914;84;21125;-90
2022/10/01 07:59:43;;;;;;;27.67;22.95;;;;;;;12.00;76.67;100772.16;1678741;84;21117;-90
2022/10/01 08:02:14;;;;;;;27.50;22.85;;;;;;;12.05;76.61;100770.06;1672014;84;21119;-92
2022/10/01 08:07:27;;;;;;;25.62;20.77;;;;;;;12.20;76.27;100768.56;1658675;85;21813;-84
2022/10/01 08:09:54;;;;;;;25.12;21.42;;;;;;;12.27;76.16;100761.66;1661561;83;21062;-84
2022/10/01 08:12:20;;;;;;;25.32;19.32;;;;;;;12.29;76.09;100754.66;1689824;84;21114;-89
2022/10/01 08:14:47;;;;;;;25.52;19.67;;;;;;;12.45;75.91;100755.39;1683711;84;21110;-88
2022/10/01 08:17:14;;;;;;;21.55;19.12;;;;;;;12.52;75.84;100752.00;1657235;86;21624;-83
2022/10/01 08:19:41;;;;;;;24.77;20.80;;;;;;;12.61;75.60;100744.64;1686878;84;22511;-83
2022/10/01 08:22:08;;;;;;;26.65;21.45;;;;;;;12.69;75.43;100749.64;1666977;84;21089;-84
2022/10/01 08:24:35;;;;;;;23.87;20.02;;;;;;;12.77;75.31;100744.48;1685817;83;21082;-83
2022/10/01 08:27:02;;;;;;;24.32;19.90;;;;;;;12.84;75.19;100741.95;1652458;84;21540;-82
2022/10/01 08:29:29;;;;;;;25.45;22.70;;;;;;;12.94;75.07;100733.73;1708371;83;21666;-89
2022/10/01 08:31:57;;;;;;;25.75;22.77;;;;;;;13.01;74.79;100734.28;1654855;84;21756;-88
2022/10/01 08:34:24;;;;;;;24.85;18.92;;;;;;;13.06;74.53;100733.02;1650179;84;21147;-82
2022/10/01 08:36:51;;;;;;;24.15;20.40;;;;;;;13.12;74.31;100728.25;1668351;84;21146;-83
2022/10/01 08:39:19;;;;;;;22.35;17.85;;;;;;;13.19;74.28;100721.78;1694809;82;21081;-87
2022/10/01 08:42:09;;;;;;;25.70;20.43;;;;;;;13.28;74.09;100724.95;1689247;82;21063;-89
2022/10/01 08:44:42;;;;;;;23.95;17.85;;;;;;;13.37;73.98;100727.77;1719368;82;22451;-83
2022/10/01 08:47:28;;;;;;;25.25;18.05;;;;;;;13.48;73.88;100723.06;1710777;83;21524;-83
2022/10/01 08:50:07;;;;;;;19.10;15.83;;;;;;;13.60;73.72;100724.52;1699982;82;21053;-89
2022/10/01 08:52:42;;;;;;;16.70;14.90;;;;;;;13.69;73.30;100708.77;1714022;83;21069;-89
2022/10/01 08:55:30;;;;;;;;;;;;;;;;;;;;;
2022/10/01 08:57:57;;;;;;;21.33;17.37;;;;;;;13.90;72.91;100698.84;1676473;82;21123;-87
2022/10/01 09:00:28;;;;;;;18.23;16.12;;;;;;;14.02;72.77;100697.20;1705082;82;21082;-88
2022/10/01 09:02:53;;;;;;;20.52;16.73;;;;;;;14.12;72.64;100691.14;1692430;83;21143;-90
2022/10/01 09:05:27;;;;;;;19.32;16.75;;;;;;;14.19;72.22;100691.20;1696918;83;21054;-83
2022/10/01 09:07:59;;;;;;;20.50;16.15;;;;;;;14.29;72.14;100677.61;1715227;83;21118;-88
2022/10/01 09:10:53;;;;;;;22.17;16.20;;;;;;;14.38;72.03;100676.36;1715079;82;22582;-87
2022/10/01 09:13:46;;;;;;;20.77;17.47;;;;;;;14.49;71.91;100675.55;1722443;82;21058;-81
2022/10/01 09:16:39;;;;;;;20.27;16.70;;;;;;;14.57;71.64;100678.75;1728923;82;21066;-87
2022/10/01 09:19:30;;;;;;;25.05;17.12;;;;;;;14.61;71.42;100670.39;1702027;82;21108;-82
2022/10/01 09:22:10;;;;;;;18.87;15.80;;;;;;;14.62;71.07;100665.97;1713391;82;21090;-82
2022/10/01 09:24:48;;;;;;;21.85;15.93;;;;;;;14.64;70.96;100662.48;1682140;85;22611;-87
2022/10/01 09:27:18;;;;;;;19.40;14.95;;;;;;;14.68;70.85;100656.77;1684148;83;21194;-86
2022/10/01 09:30:02;;;;;;;18.52;16.42;;;;;;;14.74;70.61;100656.80;1674847;85;21095;-88
2022/10/01 09:32:45;;;;;;;19.65;15.28;;;;;;;14.81;70.37;100650.66;1691213;82;21087;-83
2022/10/01 09:35:27;;;;;;;19.27;15.93;;;;;;;14.88;70.09;100644.49;1714347;82;21070;-83
2022/10/01 09:38:33;;;;;;;18.37;15.08;;;;;;;14.92;69.84;100647.63;1726258;81;21769;-88
2022/10/01 09:41:00;;;;;;;22.13;19.67;;;;;;;14.93;69.59;100640.11;1699444;83;21580;-83
2022/10/01 09:43:29;;;;;;;16.70;14.85;;;;;;;14.93;69.36;100633.48;1686713;84;21660;-88
2022/10/01 09:45:56;;;;;;;17.55;14.20;;;;;;;14.95;69.15;100640.13;1657867;85;21173;-91
2022/10/01 09:48:51;;;;;;;20.32;13.98;;;;;;;14.91;68.98;100637.90;1684657;85;21086;-87
2022/10/01 09:51:30;;;;;;;18.50;14.35;;;;;;;14.91;69.01;100631.72;1684287;85;21854;-89
2022/10/01 09:54:07;;;;;;;20.88;16.32;;;;;;;14.94;68.96;100628.65;1683982;85;21071;-86
2022/10/01 09:56:42;;;;;;;14.78;13.20;;;;;;;14.98;68.67;100624.25;1684598;84;21075;-89
2022/10/01 09:59:21;;;;;;;17.82;15.45;;;;;;;15.02;68.67;100623.37;1711402;83;21050;-83
2022/10/01 10:01:52;;;;;;;14.55;12.40;;;;;;;15.05;68.45;100618.08;1691341;83;21542;-83
2022/10/01 10:04:22;;;;;;;17.42;13.55;;;;;;;15.06;68.25;100610.58;1692047;83;21673;-84
2022/10/01 10:06:50;;;;;;;16.10;12.55;;;;;;;15.09;68.11;100613.67;1692692;84;21061;-84
2022/10/01 10:09:21;;;;;;;14.07;12.23;;;;;;;15.11;68.13;100603.99;1691826;84;21083;-84
2022/10/01 10:11:48;;;;;;;15.55;11.85;;;;;;;15.15;67.76;100607.97;1660715;84;21103;-84
2022/10/01 10:14:22;;;;;;;13.90;11.30;;;;;;;15.18;67.56;100603.11;1660811;85;21061;-84
2022/10/01 10:16:54;;;;;;;15.50;11.05;;;;;;;15.26;67.52;100600.06;1609987;86;21741;-89
2022/10/01 10:19:28;;;;;;;15.88;11.83;;;;;;;15.36;67.61;100600.52;1645071;86;21481;-88
2022/10/01 10:22:12;;;;;;;13.65;11.33;;;;;;;15.42;67.24;100593.02;1655546;86;21050;-89
2022/10/01 10:24:39;;;;;;;18.07;10.90;;;;;;;15.47;67.07;100587.75;1620314;87;21121;-88
2022/10/01 10:27:17;;;;;;;14.53;11.57;;;;;;;15.49;66.96;100589.96;1611297;89;21078;-89
2022/10/01 10:29:44;;;;;;;15.10;11.22;;;;;;;15.51;66.78;100578.91;1645928;86;22494;-84
2022/10/01 10:32:16;;;;;;;15.53;12.60;;;;;;;15.52;66.67;100580.24;1612323;87;21194;-88
2022/10/01 10:34:45;;;;;;;16.00;12.47;;;;;;;15.59;66.79;100573.61;1633753;87;21093;-88
2022/10/01 10:37:16;;;;;;;13.62;11.63;;;;;;;15.71;66.68;100577.17;1647447;85;21680;-84
2022/10/01 10:39:52;;;;;;;17.45;11.25;;;;;;;15.88;66.64;100573.69;1666118;86;21083;-84
2022/10/01 10:42:25;;;;;;;15.35;11.38;;;;;;;16.09;66.57;100562.18;1696602;84;22635;-88
2022/10/01 10:44:54;;;;;;;15.38;11.65;;;;;;;16.31;66.45;100559.03;1697169;84;21624;-88
2022/10/01 10:47:21;;;;;;;14.35;10.88;;;;;;;16.48;66.16;100555.05;1696222;84;21091;-89
2022/10/01 10:49:57;;;;;;;14.60;11.75;;;;;;;16.60;65.94;100553.66;1696701;84;21037;-89
2022/10/01 10:52:35;;;;;;;15.58;11.30;;;;;;;16.69;65.58;100554.09;1685802;83;21074;-88
2022/10/01 10:55:29;;;;;;;14.45;11.22;;;;;;;16.71;65.27;100542.55;1696488;84;22436;-84
2022/10/01 10:58:09;;;;;;;12.05;9.30;;;;;;;16.76;65.03;100541.23;1673417;84;21542;-84
2022/10/01 11:00:38;;;;;;;12.13;10.40;;;;;;;16.70;64.79;100520.88;1695179;84;21129;-84
2022/10/01 11:03:05;;;;;;;12.05;10.32;;;;;;;16.78;64.68;100533.22;1649156;84;21102;-89
2022/10/01 11:05:35;;;;;;;13.45;10.65;;;;;;;16.75;64.53;100530.14;1682338;83;21117;-89
2022/10/01 11:08:07;;;;;;;13.25;10.43;;;;;;;16.73;64.44;100528.39;1668023;85;21789;-85
2022/10/01 11:11:01;;;;;;;11.65;10.08;;;;;;;16.71;64.43;100517.77;1682028;84;21086;-89
2022/10/01 11:13:59;;;;;;;15.18;9.93;;;;;;;16.77;64.47;100522.17;1667423;86;21050;-85
2022/10/01 11:16:53;;;;;;;12.55;9.20;;;;;;;16.84;64.44;100518.17;1668475;83;21069;-83
2022/10/01 11:19:51;;;;;;;11.43;8.80;;;;;;;16.95;64.25;100511.91;1668776;86;21050;-87
2022/10/01 11:22:58;;;;;;;12.95;9.13;;;;;;;17.03;63.96;100503.47;1668774;85;22532;-88
2022/10/01 11:25:33;;;;;;;9.45;8.50;;;;;;;17.08;63.89;100501.22;1676207;84;21061;-83
2022/10/01 11:28:27;;;;;;;12.53;9.08;;;;;;;17.15;63.85;100488.75;1697526;84;21136;-88
2022/10/01 11:31:29;;;;;;;10.23;9.23;;;;;;;17.20;63.69;100481.64;1696121;84;21096;-84
2022/10/01 11:34:25;;;;;;;11.30;8.75;;;;;;;17.21;63.37;100472.78;1696134;84;21084;-83
2022/10/01 11:37:27;;;;;;;14.63;9.15;;;;;;;17.21;63.25;100471.88;1672957;83;21851;-89
2022/10/01 11:39:55;;;;;;;11.03;8.73;;;;;;;17.27;63.22;100467.41;1678991;84;21024;-89
2022/10/01 11:42:26;;;;;;;10.93;7.70;;;;;;;17.34;63.11;100470.02;1672330;84;21046;-88